createdAt,value
2022-12-31T00:01:43.693Z,1.50
2022-12-31T00:04:46.497Z,2.20
2022-12-31T00:07:49.272Z,2.30
2022-12-31T00:10:52.105Z,1.80
2022-12-31T00:13:55.652Z,1.70
2022-12-31T00:16:58.523Z,2.90
2022-12-31T00:20:01.410Z,2.30
2022-12-31T00:23:04.231Z,2.10
2022-12-31T00:26:16.958Z,2.10
2022-12-31T00:29:19.786Z,1.50
2022-12-31T00:32:22.637Z,2.50
2022-12-31T00:35:25.497Z,2.10
2022-12-31T00:38:28.286Z,2.40
2022-12-31T00:41:31.488Z,2.10
2022-12-31T00:44:34.249Z,2.30
2022-12-31T00:47:37.061Z,2.60
2022-12-31T00:50:39.830Z,2.10
2022-12-31T00:53:43.434Z,1.70
2022-12-31T00:56:46.359Z,2.00
2022-12-31T00:59:49.153Z,1.80
2022-12-31T01:02:52.070Z,2.00
2022-12-31T01:05:59.894Z,2.00
2022-12-31T01:09:02.744Z,2.80
2022-12-31T01:12:05.752Z,1.50
2022-12-31T01:15:08.743Z,1.70
2022-12-31T01:18:11.696Z,2.60
2022-12-31T01:21:15.763Z,2.30
2022-12-31T01:24:18.583Z,2.80
2022-12-31T01:27:21.398Z,1.50
2022-12-31T01:30:24.183Z,2.90
2022-12-31T01:33:26.993Z,2.30
2022-12-31T01:36:31.974Z,2.90
2022-12-31T01:39:34.750Z,2.70
2022-12-31T01:42:37.625Z,2.60
2022-12-31T01:45:42.224Z,2.90
2022-12-31T01:48:50.205Z,2.80
2022-12-31T01:52:24.328Z,2.10
2022-12-31T01:55:30.533Z,3.00
2022-12-31T01:58:44.303Z,2.40
2022-12-31T02:01:48.909Z,2.60
2022-12-31T02:04:56.123Z,3.30
2022-12-31T02:07:59.035Z,2.00
2022-12-31T02:11:02.059Z,2.20
2022-12-31T02:14:10.017Z,2.40
2022-12-31T02:17:25.025Z,3.00
2022-12-31T02:21:03.573Z,3.20
2022-12-31T02:24:06.376Z,2.10
2022-12-31T02:27:23.929Z,3.10
2022-12-31T02:30:31.357Z,3.00
2022-12-31T02:33:41.320Z,2.00
2022-12-31T02:36:47.567Z,3.50
2022-12-31T02:39:51.466Z,2.90
2022-12-31T02:42:55.701Z,2.20
2022-12-31T02:46:20.396Z,2.60
2022-12-31T02:49:53.800Z,2.20
2022-12-31T02:52:59.648Z,2.90
2022-12-31T02:56:14.491Z,2.70
2022-12-31T02:59:47.137Z,2.40
2022-12-31T03:02:52.239Z,2.80
2022-12-31T03:05:57.413Z,1.80
2022-12-31T03:09:14.835Z,2.70
2022-12-31T03:12:38.842Z,3.90
2022-12-31T03:19:13.972Z,2.90
2022-12-31T03:22:29.153Z,4.10
2022-12-31T03:25:49.766Z,4.10
2022-12-31T03:28:52.535Z,2.50
2022-12-31T03:31:55.351Z,5.00
2022-12-31T03:34:58.113Z,3.00
2022-12-31T03:38:02.177Z,3.30
2022-12-31T03:41:05.702Z,3.50
2022-12-31T03:44:08.515Z,2.40
2022-12-31T03:47:11.387Z,3.30
2022-12-31T03:50:16.722Z,2.70
2022-12-31T03:53:20.298Z,3.60
2022-12-31T03:56:23.072Z,2.90
2022-12-31T03:59:26.020Z,2.30
2022-12-31T04:02:29.617Z,2.40
2022-12-31T04:05:33.858Z,2.80
2022-12-31T04:08:36.623Z,2.80
2022-12-31T04:11:39.495Z,2.40
2022-12-31T04:14:42.724Z,2.60
2022-12-31T04:17:45.761Z,3.10
2022-12-31T04:20:48.700Z,2.50
2022-12-31T04:23:51.546Z,2.70
2022-12-31T04:26:54.356Z,3.10
2022-12-31T04:29:57.113Z,2.40
2022-12-31T04:32:59.990Z,1.90
2022-12-31T04:36:07.886Z,2.80
2022-12-31T04:39:10.666Z,2.90
2022-12-31T04:42:13.507Z,1.80
2022-12-31T04:45:16.449Z,2.90
2022-12-31T04:48:19.283Z,2.10
2022-12-31T04:51:22.861Z,1.90
2022-12-31T04:54:25.679Z,2.30
2022-12-31T04:57:28.460Z,2.20
2022-12-31T05:00:31.231Z,1.80
2022-12-31T05:03:35.355Z,2.20
2022-12-31T05:06:38.135Z,2.10
2022-12-31T05:09:40.940Z,2.10
2022-12-31T05:12:43.742Z,2.00
2022-12-31T05:15:46.983Z,1.50
2022-12-31T05:18:49.794Z,1.70
2022-12-31T05:22:11.340Z,1.80
2022-12-31T05:25:14.309Z,2.40
2022-12-31T05:28:17.559Z,1.60
2022-12-31T05:31:20.418Z,1.40
2022-12-31T05:34:23.230Z,2.00
2022-12-31T05:37:27.851Z,1.40
2022-12-31T05:40:30.800Z,2.00
2022-12-31T05:43:34.325Z,1.30
2022-12-31T05:46:37.103Z,1.10
2022-12-31T05:49:40.006Z,1.10
2022-12-31T05:52:47.423Z,1.40
2022-12-31T05:55:50.855Z,0.90
2022-12-31T05:58:53.830Z,0.80
2022-12-31T06:01:57.152Z,0.80
2022-12-31T06:04:59.967Z,0.90
2022-12-31T06:08:02.970Z,0.90
2022-12-31T06:11:05.816Z,0.80
2022-12-31T06:14:08.759Z,0.60
2022-12-31T06:17:11.701Z,0.50
2022-12-31T06:20:14.525Z,0.60
2022-12-31T06:23:17.376Z,0.60
2022-12-31T06:26:20.275Z,0.90
2022-12-31T06:29:23.102Z,0.70
2022-12-31T06:32:25.866Z,0.70
2022-12-31T06:35:28.847Z,0.70
2022-12-31T06:38:34.128Z,0.70
2022-12-31T06:41:37.428Z,1.10
2022-12-31T06:44:40.404Z,0.70
2022-12-31T06:47:43.316Z,0.60
2022-12-31T06:50:46.139Z,0.70
2022-12-31T06:53:50.876Z,0.70
2022-12-31T06:56:54.100Z,0.70
2022-12-31T06:59:57.466Z,1.00
2022-12-31T07:03:09.651Z,1.00
2022-12-31T07:06:23.518Z,0.70
2022-12-31T07:09:42.941Z,0.50
2022-12-31T07:13:17.624Z,1.30
2022-12-31T07:16:35.685Z,1.10
2022-12-31T07:19:57.896Z,1.30
2022-12-31T07:23:01.289Z,0.70
2022-12-31T07:26:11.074Z,1.10
2022-12-31T07:29:23.675Z,1.20
2022-12-31T07:32:36.106Z,1.10
2022-12-31T07:35:47.996Z,1.30
2022-12-31T07:38:57.273Z,1.00
2022-12-31T07:42:43.769Z,0.80
2022-12-31T07:45:49.972Z,1.00
2022-12-31T07:51:56.127Z,1.20
2022-12-31T07:54:58.884Z,1.10
2022-12-31T07:58:19.284Z,1.50
2022-12-31T08:01:47.896Z,1.30
2022-12-31T08:05:11.051Z,1.10
2022-12-31T08:08:39.820Z,0.90
2022-12-31T08:11:55.597Z,1.10
2022-12-31T08:14:58.697Z,1.40
2022-12-31T08:18:01.799Z,1.20
2022-12-31T08:21:17.557Z,1.20
2022-12-31T08:24:40.515Z,1.30
2022-12-31T08:28:02.277Z,1.40
2022-12-31T08:31:31.516Z,1.10
2022-12-31T08:34:52.863Z,1.00
2022-12-31T08:38:13.717Z,1.20
2022-12-31T08:41:27.098Z,0.80
2022-12-31T08:44:39.716Z,1.80
2022-12-31T08:48:04.701Z,1.30
2022-12-31T08:51:14.766Z,1.20
2022-12-31T08:54:17.793Z,1.10
2022-12-31T08:57:26.326Z,1.10
2022-12-31T09:00:30.675Z,1.10
2022-12-31T09:03:55.679Z,1.10
2022-12-31T09:07:03.052Z,1.20
2022-12-31T09:10:24.930Z,1.20
2022-12-31T09:13:49.491Z,0.90
2022-12-31T09:17:08.591Z,1.30
2022-12-31T09:20:17.180Z,0.90
2022-12-31T09:23:20.643Z,1.30
2022-12-31T09:27:06.194Z,1.00
2022-12-31T09:30:13.245Z,1.00
2022-12-31T09:33:57.700Z,1.30
2022-12-31T09:37:07.318Z,1.40
2022-12-31T09:40:28.421Z,1.60
2022-12-31T09:44:05.411Z,1.00
2022-12-31T09:47:34.574Z,1.40
2022-12-31T09:51:10.205Z,1.40
2022-12-31T09:58:05.809Z,1.40
2022-12-31T10:01:11.830Z,1.90
2022-12-31T10:04:33.597Z,1.60
2022-12-31T10:08:25.903Z,1.30
2022-12-31T10:12:03.271Z,1.40
2022-12-31T10:15:29.043Z,1.60
2022-12-31T10:19:07.729Z,1.20
2022-12-31T10:22:41.809Z,0.90
2022-12-31T10:26:05.219Z,0.90
2022-12-31T10:29:26.404Z,1.40
2022-12-31T10:32:51.305Z,1.00
2022-12-31T10:36:05.273Z,1.10
2022-12-31T10:39:22.184Z,1.10
2022-12-31T10:42:50.222Z,1.20
2022-12-31T10:46:30.135Z,1.10
2022-12-31T10:49:51.034Z,1.60
2022-12-31T10:53:13.069Z,1.30
2022-12-31T10:56:27.965Z,0.80
2022-12-31T11:00:22.670Z,1.80
2022-12-31T11:03:57.903Z,1.00
2022-12-31T11:07:16.018Z,1.10
2022-12-31T11:10:44.250Z,0.80
2022-12-31T11:13:47.002Z,1.10
2022-12-31T11:17:04.522Z,1.70
2022-12-31T11:20:39.548Z,1.30
2022-12-31T11:24:06.094Z,1.20
2022-12-31T11:27:14.898Z,1.80
2022-12-31T11:30:31.255Z,1.60
2022-12-31T11:33:58.487Z,1.60
2022-12-31T11:37:26.401Z,1.60
2022-12-31T11:40:54.717Z,0.90
2022-12-31T11:44:35.215Z,1.00
2022-12-31T11:48:04.227Z,1.30
2022-12-31T11:51:09.867Z,1.60
2022-12-31T11:57:37.398Z,1.60
2022-12-31T12:00:47.526Z,1.20
2022-12-31T12:03:50.472Z,1.00
2022-12-31T12:06:53.538Z,1.30
2022-12-31T12:09:58.394Z,1.20
2022-12-31T12:13:01.202Z,1.60
2022-12-31T12:16:07.593Z,1.30
2022-12-31T12:19:18.021Z,1.40
2022-12-31T12:22:25.893Z,2.20
2022-12-31T12:25:40.874Z,1.60
2022-12-31T12:28:46.302Z,1.60
2022-12-31T12:32:17.065Z,1.50
2022-12-31T12:35:27.181Z,1.60
2022-12-31T12:38:29.970Z,1.30
2022-12-31T12:41:32.899Z,1.60
2022-12-31T12:44:36.095Z,1.60
2022-12-31T12:47:43.284Z,1.70
2022-12-31T12:50:48.740Z,1.20
2022-12-31T12:53:58.707Z,1.30
2022-12-31T12:57:07.639Z,1.80
2022-12-31T13:00:16.668Z,1.70
2022-12-31T13:07:46.926Z,1.60
2022-12-31T13:11:19.086Z,1.80
2022-12-31T13:14:42.628Z,1.90
2022-12-31T13:18:01.848Z,1.40
2022-12-31T13:21:23.857Z,1.30
2022-12-31T13:24:45.639Z,1.40
2022-12-31T13:27:52.127Z,1.60
2022-12-31T13:31:07.274Z,1.50
2022-12-31T13:34:23.328Z,1.50
2022-12-31T13:37:33.981Z,1.50
2022-12-31T13:41:00.140Z,1.00
2022-12-31T13:44:08.640Z,1.80
2022-12-31T13:47:20.460Z,1.80
2022-12-31T13:53:57.781Z,1.50
2022-12-31T13:57:05.893Z,1.20
2022-12-31T14:00:17.918Z,1.50
2022-12-31T14:03:40.431Z,1.30
2022-12-31T14:06:51.480Z,1.40
2022-12-31T14:09:54.717Z,1.60
2022-12-31T14:13:34.172Z,2.20
2022-12-31T14:16:55.214Z,1.60
2022-12-31T14:20:14.360Z,2.70
2022-12-31T14:23:34.606Z,2.40
2022-12-31T14:26:42.586Z,1.70
2022-12-31T14:29:52.111Z,2.30
2022-12-31T14:33:12.122Z,2.00
2022-12-31T14:36:24.032Z,1.80
2022-12-31T14:39:37.811Z,2.20
2022-12-31T14:42:49.653Z,2.10
2022-12-31T14:46:18.880Z,2.60
2022-12-31T14:49:46.680Z,2.70
2022-12-31T14:53:07.995Z,3.20
2022-12-31T14:56:41.551Z,3.20
2022-12-31T14:59:58.453Z,2.40
2022-12-31T15:03:25.117Z,2.90
2022-12-31T15:06:47.377Z,1.50
2022-12-31T15:10:14.978Z,1.40
2022-12-31T15:13:49.290Z,2.80
2022-12-31T15:17:09.766Z,1.60
2022-12-31T15:20:37.907Z,1.80
2022-12-31T15:23:46.281Z,1.70
2022-12-31T15:27:01.953Z,1.90
2022-12-31T15:30:07.195Z,1.80
2022-12-31T15:33:17.610Z,3.00
2022-12-31T15:36:24.243Z,1.90
2022-12-31T15:39:39.583Z,2.40
2022-12-31T15:42:50.327Z,3.40
2022-12-31T15:45:55.566Z,2.50
2022-12-31T15:49:11.758Z,1.40
2022-12-31T15:52:29.469Z,2.30
2022-12-31T15:55:48.628Z,2.70
2022-12-31T15:58:56.923Z,2.60
2022-12-31T16:01:59.938Z,2.20
2022-12-31T16:05:02.900Z,2.80
2022-12-31T16:08:06.283Z,1.80
2022-12-31T16:11:10.261Z,2.50
2022-12-31T16:14:22.282Z,2.30
2022-12-31T16:17:33.559Z,2.00
2022-12-31T16:20:43.215Z,2.80
2022-12-31T16:23:51.249Z,2.50
2022-12-31T16:26:57.259Z,2.20
2022-12-31T16:30:07.601Z,1.90
2022-12-31T16:33:14.526Z,2.20
2022-12-31T16:36:23.013Z,2.60
2022-12-31T16:39:31.055Z,1.90
2022-12-31T16:42:42.435Z,1.90
2022-12-31T16:45:47.248Z,2.60
2022-12-31T16:48:55.241Z,2.80
2022-12-31T16:52:04.843Z,2.00
2022-12-31T16:55:10.474Z,2.80
2022-12-31T16:58:34.709Z,2.70
2022-12-31T17:01:38.548Z,2.70
2022-12-31T17:04:48.037Z,2.90
2022-12-31T17:07:54.954Z,3.10
2022-12-31T17:10:57.829Z,3.40
2022-12-31T17:14:13.953Z,3.80
2022-12-31T17:17:26.367Z,2.20
2022-12-31T17:20:31.749Z,2.80
2022-12-31T17:23:37.008Z,3.10
2022-12-31T17:26:39.942Z,2.40
2022-12-31T17:29:44.283Z,2.10
2022-12-31T17:32:50.110Z,2.10
2022-12-31T17:36:23.757Z,2.30
2022-12-31T17:39:38.813Z,2.30
2022-12-31T17:42:41.744Z,2.30
2022-12-31T17:45:46.477Z,3.00
2022-12-31T17:49:00.982Z,3.20
2022-12-31T17:52:03.959Z,3.30
2022-12-31T17:55:06.964Z,4.20
2022-12-31T17:58:29.664Z,4.20
2022-12-31T18:01:33.238Z,4.20
2022-12-31T18:04:36.061Z,5.10
2022-12-31T18:07:38.852Z,4.40
2022-12-31T18:10:44.410Z,4.10
2022-12-31T18:13:47.357Z,4.20
2022-12-31T18:16:50.314Z,3.50
2022-12-31T18:20:08.641Z,4.60
2022-12-31T18:23:20.771Z,3.00
2022-12-31T18:29:27.312Z,3.20
2022-12-31T18:32:34.186Z,3.70
2022-12-31T18:38:59.962Z,3.00
2022-12-31T18:42:02.801Z,1.90
2022-12-31T18:45:15.317Z,2.70
2022-12-31T18:48:19.075Z,3.60
2022-12-31T18:51:31.382Z,2.40
2022-12-31T18:54:35.079Z,4.20
2022-12-31T18:57:37.866Z,6.30
2022-12-31T19:00:41.195Z,5.90
2022-12-31T19:03:44.038Z,5.60
2022-12-31T19:06:47.864Z,13.40
2022-12-31T19:09:56.368Z,11.40
2022-12-31T19:13:01.185Z,1.90
2022-12-31T19:16:04.135Z,2.50
2022-12-31T19:19:08.719Z,1.90
2022-12-31T19:22:15.307Z,2.40
2022-12-31T19:25:19.658Z,2.30
2022-12-31T19:28:25.242Z,3.40
2022-12-31T19:31:28.120Z,3.20
2022-12-31T19:34:30.964Z,2.70
2022-12-31T19:37:33.795Z,2.10
2022-12-31T19:40:36.624Z,2.30
2022-12-31T19:43:39.494Z,2.80
2022-12-31T19:46:42.369Z,1.90
2022-12-31T19:49:45.326Z,2.50
2022-12-31T19:52:50.058Z,2.60
2022-12-31T19:55:53.596Z,4.80
2022-12-31T19:58:56.383Z,3.70
2022-12-31T20:01:59.327Z,4.80
2022-12-31T20:05:02.415Z,3.00
2022-12-31T20:08:05.390Z,3.30
2022-12-31T20:11:17.483Z,2.10
2022-12-31T20:14:20.341Z,3.20
2022-12-31T20:17:23.266Z,3.90
2022-12-31T20:20:29.480Z,4.50
2022-12-31T20:23:35.395Z,4.30
2022-12-31T20:26:38.392Z,3.60
2022-12-31T20:29:41.211Z,5.30
2022-12-31T20:32:44.155Z,3.60
2022-12-31T20:35:47.230Z,3.80
2022-12-31T20:38:50.439Z,4.10
2022-12-31T20:45:40.516Z,3.60
2022-12-31T20:48:45.039Z,3.60
2022-12-31T20:51:52.091Z,3.80
2022-12-31T20:54:55.281Z,2.70
2022-12-31T20:57:58.319Z,4.10
2022-12-31T21:01:01.694Z,2.80
2022-12-31T21:04:06.673Z,2.70
2022-12-31T21:07:09.783Z,4.50
2022-12-31T21:10:12.721Z,2.90
2022-12-31T21:13:15.757Z,2.70
2022-12-31T21:16:18.855Z,2.80
2022-12-31T21:19:21.694Z,3.90
2022-12-31T21:22:24.813Z,4.10
2022-12-31T21:25:27.671Z,4.30
2022-12-31T21:28:30.507Z,3.60
2022-12-31T21:31:33.480Z,4.70
2022-12-31T21:34:36.447Z,2.80
2022-12-31T21:37:59.126Z,4.00
2022-12-31T21:41:03.796Z,2.50
2022-12-31T21:44:06.762Z,3.30
2022-12-31T21:47:38.652Z,2.30
2022-12-31T21:50:46.042Z,3.90
2022-12-31T21:53:49.105Z,3.30
2022-12-31T21:56:51.907Z,2.60
2022-12-31T22:00:41.266Z,3.30
2022-12-31T22:06:39.453Z,2.70
2022-12-31T22:09:42.271Z,2.20
2022-12-31T22:12:45.539Z,2.80
2022-12-31T22:15:52.142Z,3.10
2022-12-31T22:18:56.088Z,3.20
2022-12-31T22:21:58.934Z,3.40
2022-12-31T22:25:01.859Z,3.10
2022-12-31T22:28:37.508Z,3.00
2022-12-31T22:31:30.537Z,3.70
2022-12-31T22:34:33.499Z,2.30
2022-12-31T22:37:56.334Z,3.20
2022-12-31T22:41:08.094Z,2.60
2022-12-31T22:44:11.088Z,3.50
2022-12-31T22:47:13.886Z,2.20
2022-12-31T22:50:16.743Z,3.10
2022-12-31T22:53:19.935Z,2.20
2022-12-31T22:56:22.718Z,2.40
2022-12-31T22:59:25.620Z,1.70
2022-12-31T23:02:28.734Z,1.50
2022-12-31T23:05:34.124Z,1.70
2022-12-31T23:08:37.010Z,2.00
2022-12-31T23:11:41.111Z,2.20
2022-12-31T23:15:02.326Z,3.10
2022-12-31T23:18:23.967Z,2.90
2022-12-31T23:21:45.626Z,3.10
2022-12-31T23:24:48.470Z,2.00
2022-12-31T23:27:51.301Z,1.90
2022-12-31T23:30:54.329Z,2.60
2022-12-31T23:33:57.273Z,3.00
2022-12-31T23:37:00.167Z,2.50
2022-12-31T23:40:06.568Z,2.60
2022-12-31T23:43:21.878Z,2.90
2022-12-31T23:46:24.753Z,1.90
2022-12-31T23:49:27.702Z,1.60
2022-12-31T23:52:30.628Z,2.50
2022-12-31T23:55:33.519Z,2.00
2022-12-31T23:58:36.354Z,2.80
